This is the latest recevied weather packets stored in our database for station/object KD4UFD. If no packets are shown the sender has not sent any weather packets the latest 10 day(s).
| Time | Temp. | Humidity | Pressure | Rain* | Wind** | Luminosity | Snow |
|---|---|---|---|---|---|---|---|
| 1777751136 | 17.22° C | 41% | 1014.3 hPa | 0 mm | - | 252 W/m² | - |
| 1777750832 | 16.67° C | 41% | 1013.9 hPa | 0 mm | - | 774 W/m² | - |
| 1777750530 | 16.11° C | 43% | 1014.1 hPa | 0 mm | - | 280 W/m² | - |
| 1777750226 | 16.67° C | 42% | 1014.5 hPa | 0 mm | - | 211 W/m² | - |
| 1777749922 | 16.67° C | 42% | 1014.5 hPa | 0 mm | - | 239 W/m² | - |
| 1777749620 | 16.67° C | 44% | 1014.4 hPa | 0 mm | - | 380 W/m² | - |
| 1777749317 | 16.11° C | 42% | 1014.4 hPa | 0 mm | - | 378 W/m² | - |
| 1777749015 | 16.11° C | 40% | 1014.4 hPa | 0 mm | - | 204 W/m² | - |
| 1777748712 | 16.67° C | 41% | 1014.4 hPa | 0 mm | - | 220 W/m² | - |
| 1777748409 | 17.78° C | 39% | 1014.4 hPa | 0 mm | - | 629 W/m² | - |
| 1777748104 | 17.22° C | 38% | 1014.6 hPa | 0 mm | - | 397 W/m² | - |
| 1777747801 | 17.22° C | 41% | 1014.7 hPa | 0 mm | - | 413 W/m² | - |
| 1777747495 | 16.67° C | 45% | 1014.6 hPa | 0 mm | - | 611 W/m² | - |
| 1777747193 | 16.67° C | 46% | 1014.5 hPa | 0 mm | - | 570 W/m² | - |
| 1777746889 | 16.67° C | 39% | 1014.8 hPa | 0 mm | - | 444 W/m² | - |
| 1777746584 | 16.67° C | 44% | 1014.4 hPa | 0 mm | - | 930 W/m² | - |
| 1777746280 | 17.22° C | 40% | 1014.7 hPa | 0 mm | - | 779 W/m² | - |
| 1777745976 | 17.22° C | 40% | 1014.8 hPa | 0 mm | - | 671 W/m² | - |
| 1777745675 | 17.22° C | 41% | 1014.9 hPa | 0 mm | - | 716 W/m² | - |
| 1777745373 | 16.67° C | 38% | 1014.7 hPa | 0 mm | - | 716 W/m² | - |
| 1777745070 | 16.67° C | 40% | 1014.8 hPa | 0 mm | - | 754 W/m² | - |
| 1777744766 | 17.22° C | 40% | 1014.8 hPa | 0 mm | - | 765 W/m² | - |
| 1777744460 | 16.11° C | 44% | 1014.8 hPa | 0 mm | - | 662 W/m² | - |
| 1777744157 | 16.11° C | 41% | 1015.2 hPa | 0 mm | - | 572 W/m² | - |
| 1777743854 | 16.67° C | 39% | 1014.8 hPa | 0 mm | - | 574 W/m² | - |
* Rain latest hour (hover to see other rain measurements)
** Current wind speed in m/s (hover to see current wind gust speed)